Time;durP1;ratioP1;P1;durP2;ratioP2;P2;SDS_P1;SDS_P2;PMS_P1;PMS_P2;Temp;Humidity;BMP_temperature;BMP_pressure;BME280_temperature;BME280_humidity;BME280_pressure;Samples;Min_cycle;Max_cycle;Signal;HPM_P1;HPM_P2
2021/04/25 00:01:24;;;;;;;9.27;5.85;;;6.70;99.90;;;;;;5099478;28;20198;-77
2021/04/25 00:03:52;;;;;;;9.57;4.50;;;6.70;99.90;;;;;;5094394;28;20234;-77
2021/04/25 00:06:19;;;;;;;6.68;4.22;;;6.80;99.90;;;;;;5093338;28;20194;-76
2021/04/25 00:08:45;;;;;;;7.53;4.05;;;6.90;99.90;;;;;;5092541;28;20249;-77
2021/04/25 00:11:12;;;;;;;8.40;3.92;;;6.90;99.90;;;;;;5092629;28;20194;-75
2021/04/25 00:13:38;;;;;;;10.90;5.10;;;6.90;99.90;;;;;;5090600;28;20218;-76
2021/04/25 00:16:06;;;;;;;7.28;4.25;;;6.90;99.90;;;;;;5102057;28;20259;-76
2021/04/25 00:18:34;;;;;;;10.65;4.10;;;7.00;99.90;;;;;;5094836;28;20571;-77
2021/04/25 00:21:02;;;;;;;7.45;4.88;;;7.00;99.90;;;;;;5094101;28;20206;-77
2021/04/25 00:23:30;;;;;;;10.52;4.45;;;7.10;99.90;;;;;;5092678;28;20219;-76
2021/04/25 00:25:57;;;;;;;7.60;3.85;;;7.10;99.90;;;;;;5092679;28;20213;-76
2021/04/25 00:28:25;;;;;;;6.20;3.95;;;7.10;99.90;;;;;;5087631;28;20259;-78
2021/04/25 00:30:52;;;;;;;9.32;4.85;;;7.10;99.90;;;;;;5089865;28;20255;-75
2021/04/25 00:33:19;;;;;;;7.93;4.10;;;7.10;99.90;;;;;;5100453;28;20279;-77
2021/04/25 00:35:45;;;;;;;5.40;3.83;;;7.10;99.90;;;;;;5089488;28;20233;-80
2021/04/25 00:38:13;;;;;;;7.05;3.97;;;7.10;99.90;;;;;;5086040;28;20199;-77
2021/04/25 00:40:40;;;;;;;7.45;3.45;;;7.10;99.90;;;;;;5089605;28;20731;-76
2021/04/25 00:43:07;;;;;;;7.13;4.07;;;7.10;99.90;;;;;;5090589;28;20207;-75
2021/04/25 00:45:33;;;;;;;5.93;3.10;;;7.10;99.90;;;;;;5091679;28;20203;-74
2021/04/25 00:48:00;;;;;;;7.00;3.20;;;7.10;99.60;;;;;;5086977;28;20224;-75
2021/04/25 00:50:27;;;;;;;6.93;3.47;;;7.10;99.60;;;;;;5092888;28;20209;-75
2021/04/25 00:52:57;;;;;;;5.18;4.22;;;7.20;99.30;;;;;;5099576;28;20717;-74
2021/04/25 00:55:27;;;;;;;7.53;4.07;;;7.20;99.20;;;;;;5093559;28;20220;-76
2021/04/25 00:57:55;;;;;;;10.73;4.00;;;7.20;99.10;;;;;;5090472;28;20244;-77
2021/04/25 01:00:24;;;;;;;9.77;3.53;;;7.20;99.30;;;;;;5092737;28;20202;-77
2021/04/25 01:02:50;;;;;;;8.65;3.00;;;7.20;99.20;;;;;;5089756;28;20198;-77
2021/04/25 01:05:24;;;;;;;7.50;3.45;;;7.20;99.00;;;;;;5087066;28;20660;-77
2021/04/25 01:07:50;;;;;;;6.15;3.65;;;7.20;98.80;;;;;;5092569;28;20549;-76
2021/04/25 01:10:18;;;;;;;6.40;3.15;;;7.30;98.90;;;;;;5087151;28;20226;-78
2021/04/25 01:12:47;;;;;;;8.98;3.03;;;7.30;98.80;;;;;;5100035;28;20217;-78
2021/04/25 01:15:16;;;;;;;5.72;2.55;;;7.30;98.70;;;;;;5099180;28;20224;-76
2021/04/25 01:17:45;;;;;;;5.57;2.60;;;7.30;98.60;;;;;;5100079;28;20200;-75
2021/04/25 01:20:13;;;;;;;4.85;2.70;;;7.40;98.50;;;;;;5100672;28;20214;-77
2021/04/25 01:22:42;;;;;;;4.03;2.13;;;7.40;98.40;;;;;;5095564;28;20202;-77
2021/04/25 01:25:11;;;;;;;7.28;2.78;;;7.40;98.40;;;;;;5106391;28;20230;-76
2021/04/25 01:27:37;;;;;;;6.18;2.67;;;7.40;98.00;;;;;;5088995;28;20680;-78
2021/04/25 01:30:05;;;;;;;7.90;2.50;;;7.40;98.10;;;;;;5092065;28;20195;-76
2021/04/25 01:32:32;;;;;;;4.32;2.58;;;7.40;97.90;;;;;;5090433;28;20202;-78
2021/04/25 01:34:59;;;;;;;5.13;2.30;;;7.40;97.60;;;;;;5085536;28;20226;-78
2021/04/25 01:37:26;;;;;;;5.47;2.47;;;7.40;97.60;;;;;;5092966;28;20206;-78
2021/04/25 01:39:54;;;;;;;9.05;2.33;;;7.40;97.60;;;;;;5092499;28;20281;-76
2021/04/25 01:42:21;;;;;;;7.72;2.70;;;7.40;97.50;;;;;;5092906;28;20198;-77
2021/04/25 01:44:47;;;;;;;8.82;3.10;;;7.40;97.60;;;;;;5100642;28;20225;-79
2021/04/25 01:47:14;;;;;;;10.15;3.35;;;7.40;97.60;;;;;;5097012;28;20202;-77
2021/04/25 01:49:41;;;;;;;3.13;2.72;;;7.40;98.00;;;;;;5098346;28;20199;-78
2021/04/25 01:52:07;;;;;;;8.55;2.78;;;7.40;97.60;;;;;;5096787;28;20199;-76
2021/04/25 01:54:34;;;;;;;3.22;1.75;;;7.40;97.80;;;;;;5101111;28;20287;-77
2021/04/25 01:57:01;;;;;;;3.22;2.17;;;7.40;97.80;;;;;;5092652;28;20218;-77
2021/04/25 01:59:30;;;;;;;3.97;2.50;;;7.40;97.90;;;;;;5096463;28;20567;-76
2021/04/25 02:01:57;;;;;;;4.28;2.70;;;7.40;98.00;;;;;;5093107;28;20229;-76
2021/04/25 02:04:26;;;;;;;3.75;2.47;;;7.40;98.00;;;;;;5092325;28;20222;-76
2021/04/25 02:06:52;;;;;;;7.20;2.55;;;7.40;97.90;;;;;;5093138;28;20210;-78
2021/04/25 02:09:20;;;;;;;3.42;2.35;;;7.40;97.80;;;;;;5092989;28;20736;-79
2021/04/25 02:11:46;;;;;;;6.43;2.60;;;7.50;97.80;;;;;;5089178;28;20263;-78
2021/04/25 02:14:14;;;;;;;6.10;2.10;;;7.50;97.80;;;;;;5095708;28;20229;-78
2021/04/25 02:16:41;;;;;;;7.47;2.60;;;7.50;97.70;;;;;;5102065;28;20202;-76
2021/04/25 02:19:07;;;;;;;4.47;2.28;;;7.50;97.80;;;;;;5097033;28;20681;-76
2021/04/25 02:21:34;;;;;;;5.45;2.55;;;7.50;97.60;;;;;;5102563;28;20203;-77
2021/04/25 02:24:04;;;;;;;3.67;2.42;;;7.50;97.60;;;;;;5108293;28;20231;-76
2021/04/25 02:26:30;;;;;;;3.13;2.25;;;7.60;97.70;;;;;;5102073;28;20198;-77
2021/04/25 02:28:58;;;;;;;5.60;2.00;;;7.60;97.20;;;;;;5093904;28;20222;-78
2021/04/25 02:31:25;;;;;;;7.53;2.60;;;7.50;97.10;;;;;;5087557;28;20658;-77
2021/04/25 02:33:52;;;;;;;5.15;2.60;;;7.60;97.30;;;;;;5089786;28;20682;-79
2021/04/25 02:36:19;;;;;;;5.32;1.83;;;7.50;97.00;;;;;;5091166;28;20208;-79
2021/04/25 02:38:45;;;;;;;2.33;1.63;;;7.50;97.50;;;;;;5095651;28;20877;-78
2021/04/25 02:41:12;;;;;;;5.57;2.78;;;7.50;97.50;;;;;;5092164;28;20205;-77
2021/04/25 02:43:38;;;;;;;4.38;2.72;;;7.50;97.50;;;;;;5096710;28;20708;-77
2021/04/25 02:46:05;;;;;;;8.48;3.42;;;7.40;97.10;;;;;;5106189;28;20206;-76
2021/04/25 02:48:33;;;;;;;9.52;3.67;;;7.30;97.40;;;;;;5106990;28;20202;-78
2021/04/25 02:50:59;;;;;;;5.53;3.45;;;7.40;97.60;;;;;;5098926;28;20202;-76
2021/04/25 02:53:26;;;;;;;8.38;3.00;;;7.40;97.60;;;;;;5095108;28;20231;-78
2021/04/25 02:55:52;;;;;;;9.57;2.35;;;7.40;97.60;;;;;;5095677;28;20222;-78
2021/04/25 02:58:19;;;;;;;10.45;3.95;;;7.40;97.60;;;;;;5095789;28;20252;-77
2021/04/25 03:00:46;;;;;;;5.95;2.00;;;7.40;97.20;;;;;;5098418;28;20206;-77
2021/04/25 03:03:12;;;;;;;9.27;3.45;;;7.40;97.60;;;;;;5106991;28;20572;-76
2021/04/25 03:05:40;;;;;;;6.07;2.22;;;7.30;97.70;;;;;;5093771;28;20223;-77
2021/04/25 03:08:06;;;;;;;4.60;2.50;;;7.40;97.80;;;;;;5102605;28;20235;-76
2021/04/25 03:10:33;;;;;;;3.70;2.30;;;7.40;97.70;;;;;;5094990;28;20208;-76
2021/04/25 03:13:00;;;;;;;6.78;2.85;;;7.50;97.50;;;;;;5095239;28;20202;-77
2021/04/25 03:15:27;;;;;;;6.32;2.83;;;7.50;97.60;;;;;;5097992;28;20720;-77
2021/04/25 03:17:54;;;;;;;5.93;2.10;;;7.50;97.50;;;;;;5093572;28;20214;-77
2021/04/25 03:20:22;;;;;;;8.50;2.40;;;7.50;97.40;;;;;;5093215;28;20278;-78
2021/04/25 03:22:50;;;;;;;6.05;2.38;;;7.50;97.40;;;;;;5100705;28;20211;-77
2021/04/25 03:25:17;;;;;;;3.78;2.22;;;7.50;97.40;;;;;;5093232;28;20198;-76
2021/04/25 03:27:47;;;;;;;5.55;1.73;;;7.50;97.30;;;;;;5097861;28;20210;-75
2021/04/25 03:30:17;;;;;;;9.95;1.98;;;7.40;97.20;;;;;;5086385;28;20206;-75
2021/04/25 03:32:44;;;;;;;4.75;2.50;;;7.40;97.10;;;;;;5103246;28;20230;-75
2021/04/25 03:35:13;;;;;;;4.28;2.22;;;7.40;97.20;;;;;;5090884;28;20225;-76
2021/04/25 03:37:40;;;;;;;5.85;2.78;;;7.40;97.10;;;;;;5095856;28;20208;-75
2021/04/25 03:40:10;;;;;;;9.32;2.70;;;7.40;97.10;;;;;;5092596;28;20209;-77
2021/04/25 03:42:38;;;;;;;4.15;2.20;;;7.40;96.80;;;;;;5094566;28;20260;-77
2021/04/25 03:45:07;;;;;;;5.20;1.83;;;7.50;96.80;;;;;;5097307;28;20220;-76
2021/04/25 03:47:33;;;;;;;3.83;2.10;;;7.40;96.60;;;;;;5093091;28;20213;-77
2021/04/25 03:50:00;;;;;;;9.77;2.60;;;7.40;96.60;;;;;;5101824;28;20200;-77
2021/04/25 03:52:27;;;;;;;6.07;2.40;;;7.50;96.70;;;;;;5102769;28;20198;-76
2021/04/25 03:54:53;;;;;;;4.82;2.28;;;7.50;96.30;;;;;;5084537;28;20284;-76
2021/04/25 03:57:21;;;;;;;9.40;2.47;;;7.40;96.20;;;;;;5086803;28;20522;-78
2021/04/25 03:59:49;;;;;;;7.47;3.03;;;7.40;96.30;;;;;;5087274;28;20211;-76
2021/04/25 04:02:16;;;;;;;3.38;1.80;;;7.40;96.50;;;;;;5106565;28;20310;-76
2021/04/25 04:04:43;;;;;;;11.27;2.08;;;7.40;96.40;;;;;;5101743;28;20226;-76
2021/04/25 04:07:11;;;;;;;4.65;2.60;;;7.50;96.50;;;;;;5093592;28;20203;-75
2021/04/25 04:09:39;;;;;;;5.63;1.55;;;7.40;96.60;;;;;;5094387;28;20256;-77
2021/04/25 04:12:06;;;;;;;4.18;2.17;;;7.50;96.80;;;;;;5085498;28;20268;-77
2021/04/25 04:14:34;;;;;;;3.15;1.70;;;7.50;96.90;;;;;;5089482;28;20276;-75
2021/04/25 04:17:00;;;;;;;4.65;1.98;;;7.50;97.20;;;;;;5093875;28;20212;-77
2021/04/25 04:19:27;;;;;;;10.65;2.88;;;7.50;97.30;;;;;;5096148;28;20198;-75
2021/04/25 04:21:54;;;;;;;7.13;1.95;;;7.50;97.20;;;;;;5093491;28;20657;-74
2021/04/25 04:24:20;;;;;;;8.55;3.55;;;7.40;97.40;;;;;;5093418;28;20219;-76
2021/04/25 04:26:47;;;;;;;5.80;3.10;;;7.40;97.70;;;;;;5097796;28;20209;-75
2021/04/25 04:29:13;;;;;;;7.53;2.30;;;7.40;97.60;;;;;;5087949;28;20221;-76
2021/04/25 04:31:41;;;;;;;5.88;1.80;;;7.40;96.90;;;;;;5094172;28;20195;-77
2021/04/25 04:34:08;;;;;;;6.07;2.80;;;7.50;96.50;;;;;;5088612;28;20220;-78
2021/04/25 04:36:34;;;;;;;12.93;3.17;;;7.50;96.40;;;;;;5086165;28;20626;-77
2021/04/25 04:39:01;;;;;;;14.05;2.75;;;7.50;96.50;;;;;;5089357;28;20204;-77
2021/04/25 04:41:27;;;;;;;8.00;2.05;;;7.50;96.50;;;;;;5085563;28;20335;-77
2021/04/25 04:43:54;;;;;;;8.95;2.53;;;7.50;96.70;;;;;;5098206;28;20555;-77
2021/04/25 04:46:21;;;;;;;6.90;2.20;;;7.40;96.80;;;;;;5091827;28;20200;-76
2021/04/25 04:48:49;;;;;;;9.10;2.85;;;7.40;97.00;;;;;;5099794;28;20233;-77
2021/04/25 04:51:15;;;;;;;8.50;2.47;;;7.40;97.20;;;;;;5101532;28;20212;-76
2021/04/25 04:53:42;;;;;;;6.35;2.10;;;7.40;97.30;;;;;;5099634;28;20765;-75
2021/04/25 04:56:08;;;;;;;8.63;1.80;;;7.40;97.30;;;;;;5103100;28;20271;-77
2021/04/25 04:58:36;;;;;;;4.95;1.90;;;7.50;97.40;;;;;;5093142;28;20202;-75
2021/04/25 05:01:03;;;;;;;9.57;2.28;;;7.40;96.50;;;;;;5092997;28;20264;-77
2021/04/25 05:03:30;;;;;;;8.20;2.25;;;7.50;96.30;;;;;;5102180;28;20218;-76
2021/04/25 05:05:58;;;;;;;4.55;2.88;;;7.50;96.10;;;;;;5093618;28;20226;-77
2021/04/25 05:08:25;;;;;;;8.98;2.95;;;7.60;95.50;;;;;;5094498;28;20709;-76
2021/04/25 05:10:52;;;;;;;4.65;2.10;;;7.60;95.60;;;;;;5087553;28;20290;-78
2021/04/25 05:13:18;;;;;;;5.80;2.50;;;7.60;96.00;;;;;;5096591;28;20231;-77
2021/04/25 05:15:45;;;;;;;7.65;2.15;;;7.60;96.10;;;;;;5093570;28;20213;-76
2021/04/25 05:18:13;;;;;;;7.65;2.70;;;7.70;96.30;;;;;;5094653;28;20199;-77
2021/04/25 05:20:39;;;;;;;7.43;2.70;;;7.70;96.30;;;;;;5091704;28;20219;-75
2021/04/25 05:23:07;;;;;;;7.10;2.30;;;7.80;96.40;;;;;;5091268;28;20219;-76
2021/04/25 05:25:34;;;;;;;8.55;2.20;;;7.80;96.40;;;;;;5090980;28;20203;-76
2021/04/25 05:28:00;;;;;;;8.48;2.08;;;7.80;96.40;;;;;;5091183;28;20226;-78
2021/04/25 05:30:27;;;;;;;2.92;1.90;;;7.80;96.30;;;;;;5092012;28;20261;-75
2021/04/25 05:32:53;;;;;;;8.88;2.60;;;7.80;96.50;;;;;;5091988;28;20211;-77
2021/04/25 05:35:20;;;;;;;9.93;2.05;;;7.90;96.50;;;;;;5083509;28;20206;-78
2021/04/25 05:37:48;;;;;;;4.65;1.95;;;8.00;96.50;;;;;;5097641;28;20208;-76
2021/04/25 05:40:16;;;;;;;8.82;2.83;;;8.10;96.50;;;;;;5095653;28;20211;-76
2021/04/25 05:42:43;;;;;;;13.00;2.53;;;8.20;96.30;;;;;;5092770;28;20197;-76
2021/04/25 05:45:20;;;;;;;6.47;2.50;;;8.20;95.80;;;;;;5086545;28;20225;-76
2021/04/25 05:47:47;;;;;;;8.77;2.80;;;8.20;96.40;;;;;;5096835;28;20604;-76
2021/04/25 05:50:14;;;;;;;6.43;2.35;;;8.20;95.60;;;;;;5103730;28;20200;-77
2021/04/25 05:52:40;;;;;;;5.25;1.90;;;8.30;95.30;;;;;;5105734;28;20209;-75
2021/04/25 05:55:08;;;;;;;8.43;2.10;;;8.30;94.40;;;;;;5096186;28;20227;-80
2021/04/25 05:57:36;;;;;;;8.00;1.95;;;8.40;94.00;;;;;;5096601;28;20303;-78
2021/04/25 06:00:04;;;;;;;5.97;2.00;;;8.60;93.80;;;;;;5096431;28;20199;-78
2021/04/25 06:02:31;;;;;;;7.68;2.10;;;8.70;93.10;;;;;;5097293;28;20582;-76
2021/04/25 06:04:58;;;;;;;8.40;1.85;;;9.70;92.50;;;;;;5097894;28;20312;-79
2021/04/25 06:07:24;;;;;;;8.75;2.00;;;10.90;89.20;;;;;;5109141;28;20205;-75
2021/04/25 06:09:51;;;;;;;6.97;2.40;;;11.60;86.00;;;;;;5104866;28;20606;-77
2021/04/25 06:12:18;;;;;;;10.25;2.00;;;11.60;84.10;;;;;;5096450;28;20202;-75
2021/04/25 06:14:46;;;;;;;5.90;1.60;;;11.60;83.50;;;;;;5096741;28;20222;-79
2021/04/25 06:17:12;;;;;;;9.60;2.00;;;11.60;82.30;;;;;;5084910;28;20203;-76
2021/04/25 06:19:39;;;;;;;7.00;1.58;;;11.90;82.40;;;;;;5105059;28;20201;-79
2021/04/25 06:22:06;;;;;;;6.38;1.95;;;12.30;80.80;;;;;;5097754;28;20270;-76
2021/04/25 06:24:32;;;;;;;4.25;1.60;;;12.50;80.00;;;;;;5096820;28;20223;-77
2021/04/25 06:26:59;;;;;;;4.13;1.70;;;12.70;79.30;;;;;;5100990;28;20212;-76
2021/04/25 06:29:26;;;;;;;4.63;2.25;;;12.60;79.20;;;;;;5094204;28;20221;-76
2021/04/25 06:31:53;;;;;;;5.03;2.00;;;12.20;78.90;;;;;;5096828;28;20221;-76
2021/04/25 06:34:20;;;;;;;6.50;2.45;;;12.10;79.30;;;;;;5097378;28;20533;-78
2021/04/25 06:36:47;;;;;;;6.68;2.30;;;11.90;80.10;;;;;;5098849;28;20223;-78
2021/04/25 06:39:13;;;;;;;4.25;1.52;;;12.30;80.70;;;;;;5092484;28;20275;-77
2021/04/25 06:41:41;;;;;;;5.72;2.08;;;12.60;78.50;;;;;;5090912;28;20207;-80
2021/04/25 06:44:08;;;;;;;5.13;2.08;;;12.40;78.20;;;;;;5092599;28;20564;-76
2021/04/25 06:46:35;;;;;;;5.90;2.63;;;12.20;80.10;;;;;;5095966;28;20268;-76
2021/04/25 06:49:03;;;;;;;5.43;2.67;;;12.20;79.40;;;;;;5095382;28;20222;-75
2021/04/25 06:51:30;;;;;;;3.95;1.70;;;12.70;79.90;;;;;;5096337;28;20212;-77
2021/04/25 06:53:58;;;;;;;3.38;1.80;;;14.40;76.80;;;;;;5095244;28;20258;-75
2021/04/25 06:56:25;;;;;;;7.45;2.40;;;16.20;71.90;;;;;;5090968;28;20210;-76
2021/04/25 06:58:51;;;;;;;8.60;2.33;;;17.80;66.40;;;;;;5093981;28;20248;-74
2021/04/25 07:01:18;;;;;;;5.10;2.17;;;18.90;60.60;;;;;;5094435;28;20459;-73
2021/04/25 07:03:45;;;;;;;5.80;2.30;;;19.80;55.60;;;;;;5096963;28;20451;-76
2021/04/25 07:06:12;;;;;;;6.03;1.70;;;20.40;54.60;;;;;;5094813;28;20448;-74
2021/04/25 07:08:39;;;;;;;6.23;2.20;;;20.70;53.80;;;;;;5088784;28;20822;-78
2021/04/25 07:11:06;;;;;;;7.27;2.07;;;19.80;52.50;;;;;;5098761;28;20938;-75
2021/04/25 07:13:33;;;;;;;6.20;2.13;;;18.30;53.80;;;;;;5102576;28;20811;-77
2021/04/25 07:16:00;;;;;;;4.80;2.10;;;17.60;55.70;;;;;;5096433;28;20512;-78
2021/04/25 07:18:26;;;;;;;8.40;2.90;;;17.80;56.40;;;;;;5099855;28;20483;-76
2021/04/25 07:20:55;;;;;;;4.85;2.17;;;17.40;56.30;;;;;;5103112;28;20577;-77
2021/04/25 07:23:24;;;;;;;3.42;2.33;;;16.60;56.90;;;;;;5090989;28;20225;-78
2021/04/25 07:25:51;;;;;;;3.92;2.20;;;16.00;58.00;;;;;;5102207;28;20198;-83
2021/04/25 07:28:18;;;;;;;3.33;2.15;;;15.10;59.00;;;;;;5096574;28;20215;-80
2021/04/25 07:30:51;;;;;;;7.55;2.17;;;15.00;61.60;;;;;;5094644;28;20202;-76
2021/04/25 07:33:18;;;;;;;2.92;1.50;;;14.90;60.30;;;;;;5093654;28;20278;-76
2021/04/25 07:35:45;;;;;;;5.43;2.08;;;14.50;61.70;;;;;;5094200;28;20208;-79
2021/04/25 07:38:12;;;;;;;5.57;2.65;;;14.90;62.30;;;;;;5094530;28;20585;-78
2021/04/25 07:40:41;;;;;;;5.22;2.47;;;15.10;59.60;;;;;;5100946;28;20903;-78
2021/04/25 07:43:08;;;;;;;5.33;2.77;;;16.50;58.90;;;;;;5095216;28;20201;-78
2021/04/25 07:45:35;;;;;;;5.27;2.47;;;18.40;56.30;;;;;;5094597;28;20444;-75
2021/04/25 07:48:01;;;;;;;7.07;2.80;;;20.30;54.00;;;;;;5094966;28;20478;-77
2021/04/25 07:50:29;;;;;;;5.33;2.60;;;21.50;51.10;;;;;;5106582;28;20458;-79
2021/04/25 07:52:57;;;;;;;5.60;2.20;;;21.80;48.40;;;;;;5101863;28;20447;-79
2021/04/25 07:55:23;;;;;;;8.23;2.60;;;21.80;47.20;;;;;;5103604;28;20921;-79
2021/04/25 07:57:51;;;;;;;4.03;2.80;;;22.30;47.50;;;;;;5099827;28;20440;-81
2021/04/25 08:00:18;;;;;;;5.33;2.33;;;22.90;47.10;;;;;;5094517;28;20440;-77
2021/04/25 08:02:45;;;;;;;5.60;2.20;;;22.60;45.30;;;;;;5094758;28;20474;-79
2021/04/25 08:05:13;;;;;;;6.67;2.53;;;21.50;47.00;;;;;;5093152;28;20467;-76
2021/04/25 08:07:40;;;;;;;4.87;3.30;;;20.90;47.40;;;;;;5094157;28;20441;-78
2021/04/25 08:10:08;;;;;;;5.10;3.50;;;19.80;47.80;;;;;;5094450;28;20448;-78
2021/04/25 08:12:35;;;;;;;7.33;3.17;;;19.30;49.50;;;;;;5094278;28;20453;-75
2021/04/25 08:15:03;;;;;;;5.47;2.40;;;18.30;50.80;;;;;;5092990;28;20949;-77
2021/04/25 08:17:30;;;;;;;4.35;2.22;;;17.60;51.60;;;;;;5100780;28;20444;-77
2021/04/25 08:19:57;;;;;;;8.20;2.95;;;16.90;53.10;;;;;;5105893;28;20204;-80
2021/04/25 08:22:23;;;;;;;7.78;3.67;;;16.20;53.40;;;;;;5098495;28;20198;-76
2021/04/25 08:24:50;;;;;;;5.68;2.90;;;15.60;54.80;;;;;;5092346;28;20229;-77
2021/04/25 08:27:17;;;;;;;4.40;2.63;;;15.30;55.90;;;;;;5090606;28;20568;-75
2021/04/25 08:29:43;;;;;;;4.97;2.60;;;16.10;56.10;;;;;;5092292;28;20316;-77
2021/04/25 08:32:11;;;;;;;6.27;2.57;;;17.80;54.40;;;;;;5091793;28;20455;-78
2021/04/25 08:34:38;;;;;;;4.30;2.13;;;19.30;51.80;;;;;;5090789;28;20475;-79
2021/04/25 08:37:05;;;;;;;5.60;2.37;;;20.50;49.40;;;;;;5090021;28;20468;-77
2021/04/25 08:39:32;;;;;;;4.80;3.03;;;20.10;49.00;;;;;;5092259;28;20433;-77
2021/04/25 08:41:59;;;;;;;6.07;3.60;;;19.80;48.60;;;;;;5091473;28;20198;-78
2021/04/25 08:44:26;;;;;;;5.65;3.10;;;18.60;49.10;;;;;;5091578;28;21305;-75
2021/04/25 08:46:54;;;;;;;5.68;3.05;;;17.10;51.00;;;;;;5093234;28;20211;-76
2021/04/25 08:49:26;;;;;;;5.47;2.70;;;16.80;53.50;;;;;;5096595;28;20291;-72
2021/04/25 08:51:54;;;;;;;4.50;2.30;;;18.40;52.30;;;;;;5089730;28;20436;-78
2021/04/25 08:54:23;;;;;;;3.93;1.90;;;20.40;50.00;;;;;;5092416;28;20463;-78
2021/04/25 08:56:50;;;;;;;3.77;2.23;;;22.50;46.40;;;;;;5093342;28;20885;-76
2021/04/25 08:59:17;;;;;;;5.37;2.80;;;23.50;43.60;;;;;;5092050;28;20510;-75
2021/04/25 09:01:44;;;;;;;3.37;2.90;;;24.50;42.00;;;;;;5092343;28;20471;-74
2021/04/25 09:04:11;;;;;;;3.70;2.70;;;23.80;40.40;;;;;;5087601;28;20506;-72
2021/04/25 09:07:01;;;;;;;5.70;2.43;;;24.40;41.30;;;;;;5091327;28;20481;-73
2021/04/25 09:09:45;;;;;;;3.57;2.67;;;25.00;40.00;;;;;;5087209;28;20503;-74
2021/04/25 09:12:15;;;;;;;3.40;2.53;;;23.70;39.60;;;;;;5094555;28;20958;-77
2021/04/25 09:14:42;;;;;;;5.40;2.70;;;23.40;41.80;;;;;;5092232;28;21047;-76
2021/04/25 09:17:09;;;;;;;5.00;2.40;;;24.10;41.10;;;;;;5090715;28;20464;-77
2021/04/25 09:19:51;;;;;;;4.53;1.83;;;23.70;38.70;;;;;;5093779;28;20440;-79
2021/04/25 09:22:20;;;;;;;5.17;2.30;;;23.00;40.00;;;;;;5092420;28;20509;-74
2021/04/25 09:24:46;;;;;;;4.77;2.13;;;21.70;40.00;;;;;;5093152;28;20473;-79
2021/04/25 09:27:25;;;;;;;3.10;1.97;;;20.80;41.50;;;;;;5086231;28;20449;-76
2021/04/25 09:29:53;;;;;;;5.03;2.80;;;19.80;42.30;;;;;;5087115;28;20558;-76
2021/04/25 09:32:21;;;;;;;3.17;2.27;;;19.10;44.10;;;;;;5098807;28;20436;-79
2021/04/25 09:34:48;;;;;;;5.67;2.10;;;19.30;44.20;;;;;;5091638;28;20681;-79
2021/04/25 09:37:17;;;;;;;3.77;2.30;;;19.20;44.60;;;;;;5102886;28;20474;-80
2021/04/25 09:40:06;;;;;;;5.50;2.47;;;18.60;45.70;;;;;;5087238;28;20443;-77
2021/04/25 09:42:33;;;;;;;6.43;2.45;;;18.00;45.00;;;;;;5091878;28;20515;-77
2021/04/25 09:45:00;;;;;;;4.07;2.03;;;16.80;45.60;;;;;;5091128;28;20859;-76
2021/04/25 09:47:31;;;;;;;3.97;2.00;;;16.60;47.20;;;;;;5100190;28;20674;-74
2021/04/25 09:50:00;;;;;;;3.70;1.40;;;17.60;44.40;;;;;;5100986;28;20289;-77
2021/04/25 09:52:37;;;;;;;3.10;1.30;;;18.70;42.80;;;;;;5091039;28;20902;-73
2021/04/25 09:55:23;;;;;;;2.73;1.37;;;19.70;40.80;;;;;;5090726;28;20532;-74
2021/04/25 09:57:52;;;;;;;4.43;1.77;;;20.50;41.20;;;;;;5090307;28;20451;-73
2021/04/25 10:00:20;;;;;;;5.03;1.63;;;20.90;40.50;;;;;;5090257;28;20754;-74
2021/04/25 10:03:07;;;;;;;2.90;1.50;;;20.40;39.90;;;;;;5092171;28;20450;-74
2021/04/25 10:05:34;;;;;;;3.73;1.87;;;20.00;40.60;;;;;;5097187;28;20451;-81
2021/04/25 10:08:01;;;;;;;3.20;1.37;;;20.10;41.60;;;;;;5100743;28;20443;-82
2021/04/25 10:10:30;;;;;;;5.90;1.77;;;19.30;40.60;;;;;;5095735;28;20454;-86
2021/04/25 10:12:57;;;;;;;2.35;1.60;;;18.20;41.90;;;;;;5090951;28;20482;-77
2021/04/25 10:15:24;;;;;;;3.05;2.03;;;17.50;43.20;;;;;;5093707;28;20270;-81
2021/04/25 10:17:55;;;;;;;1.97;1.50;;;17.60;43.50;;;;;;5087695;28;20205;-78
2021/04/25 10:20:23;;;;;;;5.13;2.10;;;18.40;43.80;;;;;;5094122;28;20507;-81
2021/04/25 10:22:52;;;;;;;4.03;1.70;;;19.30;43.20;;;;;;5092176;28;20440;-79
2021/04/25 10:25:20;;;;;;;3.30;1.63;;;20.40;41.60;;;;;;5091881;28;20790;-79
2021/04/25 10:27:57;;;;;;;3.00;1.47;;;21.30;41.00;;;;;;5089524;28;20457;-74
2021/04/25 10:30:29;;;;;;;4.13;1.53;;;21.10;39.20;;;;;;5070657;28;20448;-77
2021/04/25 10:32:58;;;;;;;2.87;1.60;;;20.90;39.30;;;;;;5087264;28;20844;-76
2021/04/25 10:35:28;;;;;;;3.90;1.93;;;20.60;40.40;;;;;;5092429;28;20444;-75
2021/04/25 10:37:55;;;;;;;4.53;1.60;;;19.70;40.60;;;;;;5098253;28;20485;-76
2021/04/25 10:40:32;;;;;;;4.83;2.50;;;19.40;42.30;;;;;;5089793;28;20435;-76
2021/04/25 10:43:04;;;;;;;2.17;1.60;;;18.80;41.90;;;;;;5093228;28;20786;-76
2021/04/25 10:45:34;;;;;;;4.45;2.25;;;17.60;42.80;;;;;;5092847;28;20215;-76
2021/04/25 10:48:23;;;;;;;2.55;1.65;;;16.90;44.20;;;;;;5094196;28;20198;-77
2021/04/25 10:50:52;;;;;;;2.42;1.73;;;16.50;45.30;;;;;;5106458;28;20214;-76
2021/04/25 10:53:25;;;;;;;2.97;1.50;;;16.30;45.80;;;;;;5092910;28;20286;-76
2021/04/25 10:56:29;;;;;;;2.28;1.88;;;16.60;46.30;;;;;;5097044;28;20203;-78
2021/04/25 10:59:25;;;;;;;2.55;1.55;;;16.80;46.20;;;;;;5094114;28;20230;-75
2021/04/25 11:01:52;;;;;;;3.00;1.67;;;16.70;44.70;;;;;;5046498;28;20202;-77
2021/04/25 11:05:03;;;;;;;2.47;1.30;;;16.70;44.80;;;;;;5094394;28;20218;-76
2021/04/25 11:07:44;;;;;;;1.50;1.20;;;16.80;45.10;;;;;;5085202;28;20190;-77
2021/04/25 11:10:12;;;;;;;2.72;1.75;;;17.10;45.50;;;;;;5102581;28;20223;-76
2021/04/25 11:12:41;;;;;;;2.88;1.77;;;17.30;44.30;;;;;;5094689;28;20206;-77
2021/04/25 11:15:10;;;;;;;4.80;1.55;;;17.30;43.60;;;;;;5091893;28;20226;-76
2021/04/25 11:17:37;;;;;;;4.28;1.95;;;17.30;43.70;;;;;;5094755;28;20207;-77
2021/04/25 11:20:40;;;;;;;4.80;2.03;;;17.50;43.80;;;;;;5097098;28;20207;-75
2021/04/25 11:23:30;;;;;;;2.85;1.98;;;17.10;43.30;;;;;;5092571;28;20287;-77
2021/04/25 11:25:57;;;;;;;2.03;1.38;;;16.90;42.80;;;;;;5088538;28;20203;-77
2021/04/25 11:28:53;;;;;;;4.43;2.25;;;15.50;42.60;;;;;;5094572;28;20230;-76
2021/04/25 11:31:49;;;;;;;1.80;1.40;;;15.30;45.10;;;;;;5093654;28;20225;-75
2021/04/25 11:34:46;;;;;;;2.85;1.77;;;15.50;44.70;;;;;;5086220;28;20258;-74
2021/04/25 11:37:22;;;;;;;2.70;1.35;;;15.70;43.50;;;;;;5064711;28;20217;-75
2021/04/25 11:39:52;;;;;;;2.70;1.73;;;15.60;43.30;;;;;;5096712;28;20265;-74
2021/04/25 11:42:25;;;;;;;2.08;1.13;;;15.70;43.90;;;;;;5085856;28;20259;-74
2021/04/25 11:44:53;;;;;;;3.10;1.65;;;15.60;44.10;;;;;;5093679;28;20230;-77
2021/04/25 11:47:21;;;;;;;3.35;1.60;;;15.80;44.50;;;;;;5095025;28;20308;-78
2021/04/25 11:49:52;;;;;;;2.38;1.50;;;15.70;44.80;;;;;;5101328;28;20225;-76
2021/04/25 11:52:20;;;;;;;2.83;1.90;;;15.70;45.30;;;;;;5096742;28;20198;-80
2021/04/25 11:54:50;;;;;;;2.60;1.52;;;15.80;44.60;;;;;;5093891;28;20226;-77
2021/04/25 11:57:20;;;;;;;3.38;1.60;;;16.10;44.50;;;;;;5092026;28;20198;-78
2021/04/25 11:59:55;;;;;;;6.75;1.98;;;15.80;44.30;;;;;;5091901;28;20218;-76
2021/04/25 12:02:23;;;;;;;2.60;1.70;;;15.60;44.60;;;;;;5092585;28;20376;-74
2021/04/25 12:04:53;;;;;;;2.90;1.55;;;15.60;44.90;;;;;;5093900;28;20658;-75
2021/04/25 12:07:48;;;;;;;3.05;1.83;;;15.80;44.70;;;;;;5090873;28;20285;-77
2021/04/25 12:10:25;;;;;;;3.33;1.70;;;15.80;44.40;;;;;;5043457;28;20698;-75
2021/04/25 12:13:03;;;;;;;1.77;1.50;;;15.30;44.40;;;;;;5092358;28;20206;-76
2021/04/25 12:15:32;;;;;;;2.08;1.50;;;15.20;44.70;;;;;;5094773;28;20972;-76
2021/04/25 12:18:00;;;;;;;3.55;1.70;;;15.40;45.00;;;;;;5093476;28;20579;-77
2021/04/25 12:20:28;;;;;;;3.20;2.13;;;15.60;44.40;;;;;;5094246;28;20212;-75
2021/04/25 12:22:55;;;;;;;2.30;1.42;;;15.40;44.10;;;;;;5093176;28;20198;-76
2021/04/25 12:25:23;;;;;;;5.38;2.83;;;15.40;45.00;;;;;;5096604;28;20601;-77
2021/04/25 12:27:54;;;;;;;1.92;1.30;;;15.40;45.30;;;;;;5091351;28;20197;-72
2021/04/25 12:30:22;;;;;;;1.65;1.10;;;15.30;45.10;;;;;;5085394;28;20222;-76
2021/04/25 12:33:10;;;;;;;3.58;2.88;;;15.30;45.50;;;;;;5089973;28;20206;-73
2021/04/25 12:35:40;;;;;;;4.07;1.80;;;15.40;45.40;;;;;;5080637;28;20660;-74
2021/04/25 12:38:22;;;;;;;6.35;3.15;;;15.10;44.80;;;;;;5091479;28;20663;-74
2021/04/25 12:40:57;;;;;;;2.75;1.70;;;14.50;43.50;;;;;;5091244;28;20194;-73
2021/04/25 12:43:25;;;;;;;1.60;1.35;;;14.40;43.80;;;;;;5091262;28;20218;-73
2021/04/25 12:45:53;;;;;;;3.78;1.60;;;14.50;44.10;;;;;;5092153;28;20262;-73
2021/04/25 12:48:26;;;;;;;2.53;1.30;;;14.60;44.50;;;;;;5095719;28;20197;-73
2021/04/25 12:51:12;;;;;;;1.70;1.25;;;14.80;44.00;;;;;;5097898;28;20228;-73
2021/04/25 12:53:43;;;;;;;2.83;1.75;;;15.00;42.70;;;;;;5091682;28;20222;-73
2021/04/25 12:56:31;;;;;;;2.75;1.15;;;15.20;42.90;;;;;;5102263;28;21100;-73
2021/04/25 12:59:15;;;;;;;3.25;1.40;;;15.20;43.00;;;;;;5087123;28;20656;-72
2021/04/25 13:01:44;;;;;;;1.80;1.13;;;15.20;42.80;;;;;;5090896;28;20202;-74